Time;durP1;ratioP1;P1;durP2;ratioP2;P2;SDS_P1;SDS_P2;PMS_P1;PMS_P2;Temp;Humidity;BMP_temperature;BMP_pressure;BME280_temperature;BME280_humidity;BME280_pressure;Samples;Min_cycle;Max_cycle;Signal;HPM_P1;HPM_P2
2024/01/30 00:01:58;;;;;;;4.73;4.33;;;6.70;99.90;;;;;;5073120;28;20212;-91
2024/01/30 00:04:24;;;;;;;3.23;2.63;;;6.70;99.90;;;;;;5040310;28;20209;-90
2024/01/30 00:06:52;;;;;;;6.10;3.97;;;6.50;99.90;;;;;;5040846;28;20181;-90
2024/01/30 00:09:18;;;;;;;3.27;3.00;;;6.50;99.90;;;;;;5056215;28;20220;-91
2024/01/30 00:11:44;;;;;;;4.73;3.27;;;6.30;99.90;;;;;;5072231;28;20233;-90
2024/01/30 00:14:10;;;;;;;4.00;3.53;;;6.60;99.90;;;;;;5073223;28;20680;-90
2024/01/30 00:16:35;;;;;;;3.97;3.63;;;6.50;99.90;;;;;;5072367;28;20213;-92
2024/01/30 00:19:02;;;;;;;3.40;3.10;;;6.10;99.90;;;;;;5056052;28;20181;-92
2024/01/30 00:21:28;;;;;;;3.60;3.30;;;6.40;99.90;;;;;;5039808;28;20185;-91
2024/01/30 00:23:54;;;;;;;2.00;1.80;;;6.40;99.90;;;;;;5055278;28;20224;-91
2024/01/30 00:26:20;;;;;;;4.63;2.50;;;6.10;99.90;;;;;;5072899;28;20251;-90
2024/01/30 00:28:46;;;;;;;4.70;4.30;;;6.20;99.90;;;;;;5055612;28;20288;-91
2024/01/30 00:31:12;;;;;;;10.70;4.80;;;6.30;99.90;;;;;;5072231;28;20248;-91
2024/01/30 00:33:41;;;;;;;5.40;4.90;;;6.20;99.90;;;;;;5055994;28;20229;-92
2024/01/30 00:36:08;;;;;;;3.17;2.93;;;6.50;99.90;;;;;;5056236;28;20729;-90
2024/01/30 00:38:35;;;;;;;5.90;3.40;;;6.50;99.90;;;;;;5072365;28;20297;-91
2024/01/30 00:41:01;;;;;;;3.37;3.07;;;6.40;99.90;;;;;;5073061;28;20581;-90
2024/01/30 00:43:27;;;;;;;2.70;2.07;;;6.40;99.90;;;;;;5056178;28;20208;-91
2024/01/30 00:45:54;;;;;;;4.40;4.10;;;6.50;99.90;;;;;;5055621;28;20227;-91
2024/01/30 00:48:20;;;;;;;6.67;3.17;;;6.30;99.90;;;;;;5056382;28;20192;-91
2024/01/30 00:50:45;;;;;;;6.37;4.37;;;6.50;99.90;;;;;;5055322;28;20237;-90
2024/01/30 00:53:11;;;;;;;8.37;4.50;;;6.30;99.90;;;;;;5055490;28;20292;-91
2024/01/30 00:55:37;;;;;;;3.73;3.07;;;6.70;99.90;;;;;;5055505;28;20216;-91
2024/01/30 00:58:03;;;;;;;3.50;2.77;;;6.60;99.90;;;;;;5071751;28;20182;-90
2024/01/30 01:00:29;;;;;;;4.57;3.83;;;6.80;99.90;;;;;;5039402;28;20190;-91
2024/01/30 01:02:55;;;;;;;5.47;4.97;;;6.60;99.90;;;;;;5072141;28;20277;-90
2024/01/30 01:05:21;;;;;;;2.90;2.73;;;6.80;99.90;;;;;;5072295;28;20221;-90
2024/01/30 01:07:48;;;;;;;6.53;3.83;;;6.90;99.90;;;;;;5038627;28;20215;-91
2024/01/30 01:10:15;;;;;;;4.83;3.70;;;7.10;99.90;;;;;;5072305;28;20216;-90
2024/01/30 01:12:41;;;;;;;4.20;3.33;;;7.00;99.90;;;;;;5073297;28;20212;-90
2024/01/30 01:15:11;;;;;;;9.23;4.57;;;6.90;99.90;;;;;;5055710;28;20296;-91
2024/01/30 01:17:38;;;;;;;5.03;3.17;;;7.00;99.90;;;;;;5072505;28;20221;-91
2024/01/30 01:20:06;;;;;;;5.13;3.17;;;6.90;99.90;;;;;;5055087;28;20236;-91
2024/01/30 01:22:32;;;;;;;3.50;3.30;;;6.90;99.90;;;;;;5057990;28;20213;-91
2024/01/30 01:24:58;;;;;;;4.27;3.97;;;6.80;99.90;;;;;;5059269;28;20200;-90
2024/01/30 01:27:24;;;;;;;5.63;4.50;;;7.00;99.90;;;;;;5060077;28;20531;-91
2024/01/30 01:29:51;;;;;;;5.03;4.40;;;7.10;99.90;;;;;;5059503;28;20216;-91
2024/01/30 01:32:17;;;;;;;4.20;3.90;;;6.80;99.90;;;;;;5042318;28;20225;-91
2024/01/30 01:34:43;;;;;;;1.97;1.87;;;6.80;99.90;;;;;;5076678;28;20231;-91
2024/01/30 01:37:09;;;;;;;4.93;3.83;;;7.10;99.90;;;;;;5043019;28;20617;-91
2024/01/30 01:39:35;;;;;;;4.23;3.00;;;6.80;99.90;;;;;;5059760;28;20184;-90
2024/01/30 01:42:01;;;;;;;6.00;4.23;;;6.80;99.90;;;;;;5059035;28;20669;-91
2024/01/30 01:44:27;;;;;;;3.83;3.53;;;6.80;99.90;;;;;;5075961;28;20269;-91
2024/01/30 01:46:54;;;;;;;4.03;3.27;;;7.10;99.90;;;;;;5058806;28;20205;-92
2024/01/30 01:49:21;;;;;;;2.30;2.10;;;6.80;99.90;;;;;;5059517;28;20213;-92
2024/01/30 01:51:48;;;;;;;4.47;2.97;;;6.80;99.90;;;;;;5059629;28;20546;-91
2024/01/30 01:54:15;;;;;;;7.00;4.10;;;7.10;99.90;;;;;;5092525;28;20296;-91
2024/01/30 01:56:43;;;;;;;4.00;3.73;;;6.90;99.90;;;;;;5059035;28;20214;-90
2024/01/30 01:59:09;;;;;;;3.53;3.23;;;7.00;99.90;;;;;;5058625;28;20653;-91
2024/01/30 02:01:43;;;;;;;4.77;3.63;;;7.20;99.90;;;;;;5058634;28;20225;-91
2024/01/30 02:04:09;;;;;;;5.43;4.93;;;7.30;99.90;;;;;;5075244;28;20537;-90
2024/01/30 02:06:35;;;;;;;9.67;5.67;;;7.20;99.90;;;;;;5075882;28;20177;-91
2024/01/30 02:09:01;;;;;;;4.83;2.57;;;7.20;99.90;;;;;;5042158;28;20262;-91
2024/01/30 02:11:28;;;;;;;3.80;3.40;;;7.30;99.90;;;;;;5058570;28;20225;-91
2024/01/30 02:13:53;;;;;;;7.87;4.80;;;7.30;99.90;;;;;;5041986;28;20292;-91
2024/01/30 02:16:19;;;;;;;2.43;2.23;;;7.30;99.90;;;;;;5058576;28;20275;-91
2024/01/30 02:18:47;;;;;;;3.40;2.50;;;7.60;99.90;;;;;;5076042;28;20590;-91
2024/01/30 02:21:15;;;;;;;6.20;4.77;;;7.60;99.90;;;;;;5058510;28;20243;-91
2024/01/30 02:23:42;;;;;;;6.57;3.43;;;7.30;99.90;;;;;;5042018;28;20681;-91
2024/01/30 02:26:08;;;;;;;6.33;4.00;;;7.30;99.90;;;;;;5058540;28;20304;-91
2024/01/30 02:28:34;;;;;;;6.53;4.00;;;7.40;99.90;;;;;;5058566;28;20684;-91
2024/01/30 02:30:59;;;;;;;3.57;3.27;;;7.70;99.90;;;;;;5074270;28;20232;-90
2024/01/30 02:33:25;;;;;;;4.00;3.60;;;7.60;99.90;;;;;;5058068;28;20237;-91
2024/01/30 02:35:51;;;;;;;4.33;2.40;;;7.60;99.90;;;;;;5058046;28;20661;-92
2024/01/30 02:38:17;;;;;;;4.43;4.10;;;7.80;99.90;;;;;;5058007;28;20244;-91
2024/01/30 02:40:43;;;;;;;7.50;4.17;;;7.80;99.90;;;;;;5074495;28;20217;-91
2024/01/30 02:43:08;;;;;;;4.70;4.07;;;7.60;99.90;;;;;;5057979;28;20531;-91
2024/01/30 02:45:34;;;;;;;7.80;3.17;;;7.70;99.90;;;;;;5058024;28;20188;-90
2024/01/30 02:48:00;;;;;;;4.03;3.73;;;8.00;99.90;;;;;;5057948;28;20724;-91
2024/01/30 02:50:26;;;;;;;3.90;3.60;;;7.70;99.90;;;;;;5073752;28;20618;-91
2024/01/30 02:52:51;;;;;;;4.00;3.70;;;8.00;99.90;;;;;;5041127;28;20213;-90
2024/01/30 02:55:17;;;;;;;5.37;3.53;;;8.00;99.90;;;;;;5057941;28;20598;-91
2024/01/30 02:57:43;;;;;;;4.17;2.83;;;7.90;99.90;;;;;;5058731;28;20185;-90
2024/01/30 03:00:10;;;;;;;6.27;4.43;;;7.80;99.90;;;;;;5041274;28;20611;-91
2024/01/30 03:02:36;;;;;;;4.40;3.97;;;7.80;99.90;;;;;;5074100;28;20363;-91
2024/01/30 03:05:03;;;;;;;5.63;4.30;;;8.00;99.90;;;;;;5074522;28;20213;-91
2024/01/30 03:07:29;;;;;;;3.53;2.77;;;7.70;99.90;;;;;;5075032;28;20205;-90
2024/01/30 03:09:55;;;;;;;4.10;3.20;;;7.90;99.90;;;;;;5040863;28;20236;-91
2024/01/30 03:12:22;;;;;;;10.17;2.87;;;7.90;99.90;;;;;;5041439;28;20214;-91
2024/01/30 03:14:49;;;;;;;5.33;3.17;;;7.70;99.90;;;;;;5057229;28;20681;-91
2024/01/30 03:17:15;;;;;;;7.83;3.30;;;7.50;99.90;;;;;;5057196;28;20216;-92
2024/01/30 03:19:41;;;;;;;3.73;2.97;;;7.50;99.90;;;;;;5057497;28;20579;-90
2024/01/30 03:22:07;;;;;;;5.23;3.97;;;7.70;99.90;;;;;;5057048;28;20516;-91
2024/01/30 03:24:32;;;;;;;7.00;3.97;;;7.50;99.90;;;;;;5057706;28;20182;-91
2024/01/30 03:26:58;;;;;;;6.23;4.70;;;7.60;99.90;;;;;;5056929;28;20220;-91
2024/01/30 03:29:24;;;;;;;4.07;3.67;;;7.40;99.90;;;;;;5074880;28;20221;-91
2024/01/30 03:31:50;;;;;;;3.93;3.40;;;7.60;99.90;;;;;;5073472;28;20303;-92
2024/01/30 03:34:16;;;;;;;5.40;2.33;;;7.40;99.90;;;;;;5056403;28;20240;-91
2024/01/30 03:36:42;;;;;;;7.93;3.00;;;7.60;99.90;;;;;;5074076;28;20588;-91
2024/01/30 03:39:07;;;;;;;4.03;3.37;;;7.60;99.90;;;;;;5056537;28;20300;-91
2024/01/30 03:41:33;;;;;;;2.77;2.57;;;7.50;99.90;;;;;;5057376;28;20671;-89
2024/01/30 03:43:59;;;;;;;4.87;3.53;;;7.30;99.90;;;;;;5039978;28;20220;-92
2024/01/30 03:46:25;;;;;;;7.50;3.87;;;7.50;99.90;;;;;;5073356;28;20213;-91
2024/01/30 03:48:51;;;;;;;4.47;4.17;;;7.50;99.90;;;;;;5057595;28;20177;-91
2024/01/30 03:51:16;;;;;;;4.47;4.07;;;7.50;99.90;;;;;;5057281;28;20225;-90
2024/01/30 03:53:43;;;;;;;2.87;2.53;;;7.30;99.90;;;;;;5056519;28;20239;-92
2024/01/30 03:56:09;;;;;;;1.77;1.67;;;7.40;99.90;;;;;;5055884;28;20260;-92
2024/01/30 03:58:35;;;;;;;4.80;2.67;;;7.40;99.90;;;;;;5056473;28;20702;-91
2024/01/30 04:01:01;;;;;;;1.80;1.60;;;7.30;99.90;;;;;;5040142;28;20193;-92
2024/01/30 04:03:27;;;;;;;3.13;2.83;;;7.50;99.90;;;;;;5040606;28;20193;-91
2024/01/30 04:05:53;;;;;;;2.00;1.83;;;7.40;99.90;;;;;;5040229;28;20248;-90
2024/01/30 04:08:19;;;;;;;3.80;3.50;;;7.40;99.90;;;;;;5056402;28;20213;-92
2024/01/30 04:10:45;;;;;;;2.87;1.87;;;7.70;99.90;;;;;;5072914;28;20233;-90
2024/01/30 04:13:10;;;;;;;4.90;3.87;;;7.60;99.90;;;;;;5072749;28;20594;-90
2024/01/30 04:15:36;;;;;;;2.83;2.43;;;7.50;99.90;;;;;;5057796;28;20201;-91
2024/01/30 04:18:02;;;;;;;4.10;3.57;;;7.80;99.90;;;;;;5072629;28;20296;-92
2024/01/30 04:20:29;;;;;;;5.47;4.23;;;7.60;99.90;;;;;;5056136;28;20288;-91
2024/01/30 04:22:55;;;;;;;2.10;2.00;;;7.60;99.90;;;;;;5039458;28;20293;-91
2024/01/30 04:25:20;;;;;;;2.87;2.63;;;8.00;99.90;;;;;;5072377;28;20671;-91
2024/01/30 04:27:46;;;;;;;4.40;4.00;;;7.90;99.90;;;;;;5039819;28;20660;-91
2024/01/30 04:30:12;;;;;;;4.10;3.33;;;7.90;99.90;;;;;;5072542;28;20244;-91
2024/01/30 04:32:38;;;;;;;4.17;2.97;;;8.10;99.90;;;;;;5056076;28;20278;-91
2024/01/30 04:35:04;;;;;;;3.73;3.43;;;8.00;99.90;;;;;;5072019;28;20757;-91
2024/01/30 04:37:31;;;;;;;3.07;2.57;;;8.00;99.90;;;;;;5055870;28;20240;-92
2024/01/30 04:39:57;;;;;;;7.53;4.73;;;8.20;99.90;;;;;;5039162;28;20192;-91
2024/01/30 04:42:23;;;;;;;3.30;2.70;;;8.10;99.90;;;;;;5056454;28;20196;-91
2024/01/30 04:44:49;;;;;;;5.40;3.37;;;8.20;99.90;;;;;;5055851;28;20679;-91
2024/01/30 04:47:14;;;;;;;5.27;2.97;;;8.30;99.90;;;;;;5039135;28;20217;-92
2024/01/30 04:49:41;;;;;;;4.30;3.00;;;8.20;99.90;;;;;;5055805;28;20296;-92
2024/01/30 04:52:07;;;;;;;6.37;3.13;;;8.10;99.90;;;;;;5055649;28;20212;-92
2024/01/30 04:54:34;;;;;;;4.50;4.13;;;8.30;99.90;;;;;;5056580;28;20174;-91
2024/01/30 04:57:00;;;;;;;3.43;2.50;;;8.20;99.90;;;;;;5055108;28;20232;-91
2024/01/30 04:59:26;;;;;;;3.67;3.07;;;8.10;99.90;;;;;;5062509;28;20217;-92
2024/01/30 05:01:51;;;;;;;6.20;3.33;;;8.10;99.90;;;;;;5072101;28;20304;-92
2024/01/30 05:04:17;;;;;;;3.43;3.13;;;8.00;99.90;;;;;;5055297;28;20262;-92
2024/01/30 05:06:43;;;;;;;2.83;2.63;;;8.10;99.90;;;;;;5056234;28;20173;-91
2024/01/30 05:09:09;;;;;;;2.63;2.43;;;8.10;99.90;;;;;;5038710;28;20209;-92
2024/01/30 05:11:38;;;;;;;4.00;3.63;;;8.00;99.90;;;;;;5055658;28;20637;-91
2024/01/30 05:14:05;;;;;;;8.63;3.77;;;8.20;99.90;;;;;;5039041;28;20680;-91
2024/01/30 05:16:31;;;;;;;4.33;3.93;;;8.10;99.90;;;;;;5055281;28;20753;-92
2024/01/30 05:18:58;;;;;;;2.57;2.37;;;8.10;99.90;;;;;;5038712;28;20204;-91
2024/01/30 05:21:24;;;;;;;3.17;2.87;;;8.30;99.90;;;;;;5039839;28;20641;-92
2024/01/30 05:23:49;;;;;;;3.03;2.57;;;8.30;99.90;;;;;;5055398;28;20217;-90
2024/01/30 05:26:15;;;;;;;3.30;3.00;;;8.20;99.90;;;;;;5055115;28;20304;-91
2024/01/30 05:28:41;;;;;;;2.80;2.63;;;8.10;99.90;;;;;;5055612;28;20224;-92
2024/01/30 05:31:08;;;;;;;4.07;2.80;;;8.10;99.90;;;;;;5072136;28;20237;-92
2024/01/30 05:33:33;;;;;;;6.00;3.77;;;8.40;99.90;;;;;;5039060;28;20180;-92
2024/01/30 05:35:59;;;;;;;6.03;3.80;;;8.40;99.90;;;;;;5055051;28;20225;-92
2024/01/30 05:38:25;;;;;;;3.93;2.53;;;8.20;99.90;;;;;;5055079;28;20213;-92
2024/01/30 05:40:51;;;;;;;1.87;1.77;;;8.30;99.90;;;;;;5055278;28;20719;-92
2024/01/30 05:43:17;;;;;;;4.30;2.63;;;8.30;99.90;;;;;;5071806;28;20291;-92
2024/01/30 05:45:43;;;;;;;5.17;3.90;;;8.20;99.90;;;;;;5056230;28;20268;-91
2024/01/30 05:48:09;;;;;;;2.53;2.33;;;8.20;99.90;;;;;;5054578;28;20256;-92
2024/01/30 05:50:34;;;;;;;2.03;1.93;;;8.40;99.90;;;;;;5054827;28;20233;-92
2024/01/30 05:53:00;;;;;;;5.63;4.40;;;8.30;99.90;;;;;;5055068;28;20221;-92
2024/01/30 05:55:26;;;;;;;4.67;4.27;;;8.40;99.90;;;;;;5039017;28;20258;-91
2024/01/30 05:57:52;;;;;;;7.60;4.07;;;8.30;99.90;;;;;;5055468;28;20253;-89
2024/01/30 06:00:18;;;;;;;4.60;2.87;;;8.40;99.90;;;;;;5073314;28;20184;-91
2024/01/30 06:02:44;;;;;;;4.27;3.10;;;8.20;99.90;;;;;;5071818;28;20243;-91
2024/01/30 06:05:10;;;;;;;6.43;3.33;;;8.20;99.90;;;;;;5071485;28;20267;-91
2024/01/30 06:07:35;;;;;;;3.77;3.50;;;8.30;99.90;;;;;;5072461;28;20751;-91
2024/01/30 06:10:01;;;;;;;4.07;3.03;;;8.20;99.90;;;;;;5058111;28;20181;-92
2024/01/30 06:12:30;;;;;;;3.87;3.57;;;8.40;99.90;;;;;;5059649;28;20299;-93
2024/01/30 06:14:56;;;;;;;3.13;2.63;;;8.40;99.90;;;;;;5058629;28;20221;-91
2024/01/30 06:17:25;;;;;;;4.83;3.63;;;8.30;99.90;;;;;;5058173;28;20221;-91
2024/01/30 06:19:51;;;;;;;4.07;2.90;;;8.20;99.90;;;;;;5058445;28;20300;-91
2024/01/30 06:22:17;;;;;;;5.97;3.27;;;8.20;99.90;;;;;;5058574;28;20248;-92
2024/01/30 06:24:44;;;;;;;2.80;2.53;;;8.20;99.90;;;;;;5058896;28;20173;-92
2024/01/30 06:27:11;;;;;;;3.67;2.93;;;8.20;99.90;;;;;;5041735;28;20224;-92
2024/01/30 06:29:36;;;;;;;2.20;2.10;;;8.40;99.90;;;;;;5041338;28;20233;-92
2024/01/30 06:32:03;;;;;;;5.33;3.57;;;8.30;99.90;;;;;;5058331;28;20595;-92
2024/01/30 06:34:29;;;;;;;2.77;2.57;;;8.40;99.90;;;;;;5074796;28;20315;-92
2024/01/30 06:36:54;;;;;;;3.37;3.07;;;8.30;99.90;;;;;;5041880;28;20189;-92
2024/01/30 06:39:20;;;;;;;3.00;2.70;;;8.40;99.90;;;;;;5058771;28;20648;-91
2024/01/30 06:41:46;;;;;;;4.63;3.17;;;8.50;99.90;;;;;;5058163;28;20225;-91
2024/01/30 06:44:12;;;;;;;5.30;3.20;;;8.30;99.90;;;;;;5058381;28;20302;-92
2024/01/30 06:46:38;;;;;;;3.77;3.47;;;8.30;99.90;;;;;;5057168;28;20295;-92
2024/01/30 06:49:04;;;;;;;8.43;3.83;;;8.40;99.90;;;;;;5057754;28;20618;-92
2024/01/30 06:51:30;;;;;;;3.27;2.93;;;8.50;99.90;;;;;;5075155;28;20263;-92
2024/01/30 06:53:56;;;;;;;3.57;2.67;;;8.50;99.90;;;;;;5041187;28;20221;-91
2024/01/30 06:56:22;;;;;;;6.37;5.10;;;8.60;99.90;;;;;;5041850;28;20209;-92
2024/01/30 06:58:49;;;;;;;2.70;1.87;;;8.40;99.90;;;;;;5076536;28;20209;-91
2024/01/30 07:01:15;;;;;;;3.07;2.83;;;8.40;99.90;;;;;;5042025;28;20273;-91
2024/01/30 07:03:40;;;;;;;5.27;3.63;;;8.50;99.90;;;;;;5042065;28;20177;-91
2024/01/30 07:06:06;;;;;;;5.13;3.53;;;8.60;99.90;;;;;;5074635;28;20228;-92
2024/01/30 07:08:32;;;;;;;6.87;4.53;;;8.50;99.90;;;;;;5057835;28;20224;-88
2024/01/30 07:10:58;;;;;;;2.43;2.13;;;8.50;99.90;;;;;;5041073;28;20584;-92
2024/01/30 07:13:24;;;;;;;11.80;3.97;;;8.60;99.90;;;;;;5073533;28;20217;-93
2024/01/30 07:15:50;;;;;;;5.47;2.53;;;8.40;99.90;;;;;;5058075;28;20216;-91
2024/01/30 07:18:16;;;;;;;4.40;3.50;;;8.50;99.90;;;;;;5040895;28;20300;-94
2024/01/30 07:20:49;;;;;;;3.23;2.93;;;8.60;99.90;;;;;;5056617;28;20255;-92
2024/01/30 07:23:17;;;;;;;7.87;4.10;;;8.40;99.90;;;;;;5057643;28;20233;-95
2024/01/30 07:25:44;;;;;;;4.90;4.40;;;8.50;99.90;;;;;;5056317;28;20213;-92
2024/01/30 07:28:11;;;;;;;3.23;2.93;;;8.50;99.90;;;;;;5040733;28;20181;-93
2024/01/30 07:30:37;;;;;;;3.90;3.60;;;8.70;99.90;;;;;;5041123;28;20218;-93
2024/01/30 07:33:03;;;;;;;6.00;2.97;;;8.70;99.90;;;;;;5040168;28;20221;-92
2024/01/30 07:35:29;;;;;;;3.63;3.33;;;8.60;99.90;;;;;;5055977;28;20240;-93
2024/01/30 07:37:56;;;;;;;4.37;2.93;;;8.70;99.90;;;;;;5056992;28;20213;-93
2024/01/30 07:40:22;;;;;;;4.60;3.70;;;8.70;99.90;;;;;;5040315;28;20213;-93
2024/01/30 07:42:48;;;;;;;6.47;4.97;;;8.80;99.90;;;;;;5057168;28;20189;-93
2024/01/30 07:45:14;;;;;;;5.80;4.23;;;8.60;99.90;;;;;;5039896;28;20213;-94
2024/01/30 07:47:40;;;;;;;8.67;3.83;;;8.70;99.90;;;;;;5039784;28;20672;-93
2024/01/30 07:50:06;;;;;;;7.93;4.07;;;8.60;99.90;;;;;;5055950;28;20279;-93
2024/01/30 07:52:32;;;;;;;4.50;3.83;;;8.70;99.90;;;;;;5056130;28;20231;-94
2024/01/30 07:55:15;;;;;;;5.83;2.27;;;8.70;99.90;;;;;;5056875;28;20201;-95
2024/01/30 07:58:05;;;;;;;3.33;3.07;;;8.80;99.90;;;;;;5043078;28;20176;-96
2024/01/30 08:01:15;;;;;;;5.67;4.50;;;8.70;99.90;;;;;;5062415;28;20267;-96
2024/01/30 08:03:43;;;;;;;3.57;3.13;;;8.80;99.90;;;;;;5042778;28;20602;-95
2024/01/30 08:06:11;;;;;;;3.07;2.93;;;8.90;99.90;;;;;;5074357;28;20225;-96
2024/01/30 08:08:37;;;;;;;3.60;2.90;;;8.90;99.90;;;;;;5041324;28;20316;-96
2024/01/30 08:11:04;;;;;;;3.23;2.77;;;9.00;99.90;;;;;;5054974;28;20224;-95
2024/01/30 08:13:29;;;;;;;2.50;1.93;;;9.30;99.90;;;;;;5057084;28;20216;-95
2024/01/30 08:15:55;;;;;;;2.47;2.27;;;9.30;99.90;;;;;;5040486;28;20178;-96
2024/01/30 08:18:22;;;;;;;4.93;2.53;;;9.30;99.90;;;;;;5041378;28;20234;-96
2024/01/30 08:20:49;;;;;;;3.77;3.57;;;9.30;99.90;;;;;;5041600;28;20300;-95
2024/01/30 08:23:14;;;;;;;5.10;1.77;;;9.50;99.90;;;;;;5056350;28;20217;-93
2024/01/30 08:25:40;;;;;;;4.43;3.10;;;9.50;99.90;;;;;;5056696;28;20213;-95
2024/01/30 08:28:07;;;;;;;5.20;3.03;;;9.60;99.90;;;;;;5040359;28;20663;-92
2024/01/30 08:30:33;;;;;;;4.50;2.90;;;9.60;99.90;;;;;;5073771;28;20217;-92
2024/01/30 08:32:59;;;;;;;3.27;3.03;;;9.50;99.90;;;;;;5056033;28;20221;-94
2024/01/30 08:35:24;;;;;;;4.77;4.33;;;9.60;99.90;;;;;;5037898;28;20241;-90
2024/01/30 08:37:50;;;;;;;5.17;3.23;;;9.60;99.90;;;;;;5055961;28;20224;-92
2024/01/30 08:40:16;;;;;;;5.47;3.87;;;9.60;99.90;;;;;;5055594;28;20925;-93
2024/01/30 08:42:42;;;;;;;3.53;2.83;;;9.60;99.90;;;;;;5039391;28;20220;-92
2024/01/30 08:45:09;;;;;;;3.47;2.80;;;9.70;99.90;;;;;;5055579;28;20213;-93
2024/01/30 08:47:34;;;;;;;3.20;2.90;;;9.80;99.90;;;;;;5073432;28;20213;-92
2024/01/30 08:50:00;;;;;;;2.63;2.43;;;9.80;99.90;;;;;;5055734;28;20217;-95
2024/01/30 08:52:27;;;;;;;2.80;2.40;;;9.90;99.90;;;;;;5070510;28;20703;-92
2024/01/30 08:54:54;;;;;;;4.53;2.93;;;9.90;99.90;;;;;;5038342;28;20637;-93
2024/01/30 08:57:20;;;;;;;2.57;2.13;;;9.80;99.90;;;;;;5055804;28;20204;-92
2024/01/30 08:59:46;;;;;;;3.90;3.33;;;9.80;99.90;;;;;;5055130;28;20371;-92
2024/01/30 09:02:15;;;;;;;6.00;3.00;;;9.90;99.90;;;;;;5054327;28;20221;-92
2024/01/30 09:04:41;;;;;;;3.37;2.97;;;10.00;99.90;;;;;;5054199;28;20228;-93
2024/01/30 09:07:09;;;;;;;3.70;3.00;;;9.90;99.90;;;;;;5054690;28;20182;-93
2024/01/30 09:09:37;;;;;;;6.57;3.20;;;9.90;99.90;;;;;;5055964;28;20247;-92
2024/01/30 09:12:06;;;;;;;10.30;4.03;;;10.10;99.90;;;;;;5055271;28;20328;-93
2024/01/30 09:14:32;;;;;;;5.73;2.80;;;10.10;99.90;;;;;;5071809;28;20713;-92
2024/01/30 09:16:58;;;;;;;5.03;3.47;;;10.10;99.90;;;;;;5054866;28;20228;-92
2024/01/30 09:19:24;;;;;;;4.10;3.77;;;10.10;99.90;;;;;;5037966;28;20346;-93
2024/01/30 09:21:50;;;;;;;4.50;4.10;;;10.10;99.90;;;;;;5055338;28;20181;-93
2024/01/30 09:24:16;;;;;;;3.33;3.03;;;10.10;99.90;;;;;;5038495;28;20221;-92
2024/01/30 09:26:41;;;;;;;3.63;2.40;;;10.20;99.90;;;;;;5071941;28;20209;-93
2024/01/30 09:29:07;;;;;;;6.37;1.77;;;10.20;99.90;;;;;;5071851;28;20220;-92
2024/01/30 09:31:33;;;;;;;3.53;2.73;;;10.20;99.90;;;;;;5038758;28;20229;-91
2024/01/30 09:33:59;;;;;;;2.63;1.47;;;10.20;99.90;;;;;;5037460;28;20603;-95
2024/01/30 09:36:25;;;;;;;4.67;3.33;;;10.20;99.90;;;;;;5038963;28;20184;-91
2024/01/30 09:38:51;;;;;;;2.90;2.70;;;10.30;99.90;;;;;;5054916;28;20225;-92
2024/01/30 09:41:18;;;;;;;4.37;3.97;;;10.30;99.90;;;;;;5038631;28;20308;-94
2024/01/30 09:43:50;;;;;;;5.00;3.07;;;10.40;99.90;;;;;;5042003;28;20296;-94
2024/01/30 09:46:18;;;;;;;4.17;3.10;;;10.40;99.90;;;;;;5059362;28;20209;-95
2024/01/30 09:48:46;;;;;;;4.20;2.73;;;10.40;99.90;;;;;;5043709;28;20181;-94
2024/01/30 09:51:14;;;;;;;4.73;3.47;;;10.40;99.90;;;;;;5058800;28;20221;-93
2024/01/30 09:53:41;;;;;;;4.27;2.80;;;10.40;99.90;;;;;;5059300;28;20251;-94
2024/01/30 09:56:07;;;;;;;4.63;2.73;;;10.40;99.90;;;;;;5058825;28;20217;-96
2024/01/30 09:58:33;;;;;;;4.13;2.50;;;10.40;99.90;;;;;;5042181;28;20205;-94
2024/01/30 10:00:59;;;;;;;2.57;2.00;;;10.40;99.90;;;;;;5041820;28;20338;-94
2024/01/30 10:03:25;;;;;;;5.90;3.40;;;10.40;99.90;;;;;;5058902;28;20552;-95
2024/01/30 10:05:54;;;;;;;4.93;3.13;;;10.40;99.90;;;;;;5042266;28;20217;-94
2024/01/30 10:08:20;;;;;;;2.47;2.07;;;10.40;99.90;;;;;;5059039;28;20217;-95
2024/01/30 10:10:50;;;;;;;4.27;3.50;;;10.40;99.90;;;;;;5059798;28;20299;-94
2024/01/30 10:13:17;;;;;;;6.40;3.37;;;10.50;99.90;;;;;;5058374;28;20220;-95
2024/01/30 10:15:43;;;;;;;8.07;3.10;;;10.40;99.90;;;;;;5060049;28;20181;-94
2024/01/30 10:18:11;;;;;;;4.87;3.50;;;10.50;99.90;;;;;;5041974;28;20228;-96
2024/01/30 10:20:45;;;;;;;7.67;2.93;;;10.60;99.90;;;;;;5065010;28;20241;-96
2024/01/30 10:23:12;;;;;;;3.93;2.40;;;10.60;99.90;;;;;;5062094;28;20233;-96
2024/01/30 10:25:39;;;;;;;3.97;2.73;;;10.60;99.90;;;;;;5065505;28;20209;-96
2024/01/30 10:28:09;;;;;;;5.83;3.93;;;10.50;99.90;;;;;;5058813;28;20239;-96
2024/01/30 10:30:37;;;;;;;3.00;2.73;;;10.50;99.90;;;;;;5088285;28;20179;-96
2024/01/30 10:33:09;;;;;;;2.70;1.70;;;10.40;99.90;;;;;;5068589;28;20217;-96
2024/01/30 10:35:38;;;;;;;3.20;3.00;;;10.50;99.90;;;;;;5087070;28;20290;-96
2024/01/30 10:38:14;;;;;;;3.23;1.73;;;10.50;99.90;;;;;;5063938;28;20217;-95
2024/01/30 10:40:42;;;;;;;9.67;3.33;;;10.40;99.90;;;;;;5072745;28;20220;-94
2024/01/30 10:43:14;;;;;;;1.30;1.20;;;10.40;99.90;;;;;;5062261;28;20189;-94
2024/01/30 10:45:42;;;;;;;1.17;0.87;;;10.30;99.90;;;;;;5062950;28;20689;-94
2024/01/30 10:48:10;;;;;;;3.77;2.50;;;10.40;99.90;;;;;;5061471;28;20217;-94
2024/01/30 10:50:40;;;;;;;8.53;0.70;;;10.50;99.90;;;;;;5053319;28;20288;-94
2024/01/30 10:53:10;;;;;;;4.10;1.13;;;10.30;99.90;;;;;;5072813;28;20225;-96
2024/01/30 10:55:38;;;;;;;0.90;0.90;;;10.30;99.90;;;;;;5066403;28;20193;-95
2024/01/30 10:58:05;;;;;;;1.77;0.90;;;10.40;99.90;;;;;;5084942;28;20188;-96
2024/01/30 11:00:33;;;;;;;3.63;1.40;;;10.30;99.90;;;;;;5063316;28;20174;-96
2024/01/30 11:02:59;;;;;;;0.53;0.53;;;10.30;99.90;;;;;;5060445;28;20266;-95
2024/01/30 11:05:28;;;;;;;0.50;0.50;;;10.30;99.90;;;;;;5045325;28;20188;-96
2024/01/30 11:07:54;;;;;;;0.70;0.70;;;10.40;99.90;;;;;;5060235;28;20174;-95
2024/01/30 11:10:20;;;;;;;3.30;1.50;;;10.30;99.90;;;;;;5061281;28;20196;-96
2024/01/30 11:12:47;;;;;;;0.53;0.30;;;10.40;99.90;;;;;;5049699;28;20200;-95
2024/01/30 11:15:15;;;;;;;0.50;0.50;;;10.40;99.90;;;;;;5076001;28;20177;-95
2024/01/30 11:17:52;;;;;;;0.87;0.77;;;10.30;99.90;;;;;;5071114;28;20249;-96
2024/01/30 11:20:45;;;;;;;1.90;0.57;;;10.50;99.90;;;;;;5090514;28;20178;-96
2024/01/30 11:23:14;;;;;;;3.57;0.93;;;10.40;99.90;;;;;;5071002;28;20173;-96
2024/01/30 11:25:41;;;;;;;1.87;1.20;;;10.50;99.90;;;;;;5064801;28;20184;-96
2024/01/30 11:28:15;;;;;;;0.43;0.43;;;10.50;99.90;;;;;;5062871;28;20176;-96
2024/01/30 11:30:44;;;;;;;0.50;0.50;;;10.60;99.90;;;;;;5061706;28;20201;-95
2024/01/30 11:33:12;;;;;;;0.60;0.57;;;10.50;99.90;;;;;;5060294;28;20179;-94
2024/01/30 11:35:44;;;;;;;1.20;0.43;;;10.40;99.90;;;;;;5063035;28;20221;-96
2024/01/30 11:38:19;;;;;;;0.40;0.40;;;10.40;99.90;;;;;;5085277;28;20154;-96
2024/01/30 11:40:47;;;;;;;0.60;0.60;;;10.30;99.90;;;;;;5066720;28;20555;-96
2024/01/30 11:43:13;;;;;;;1.03;0.67;;;10.30;99.90;;;;;;5061006;28;20182;-96
2024/01/30 11:45:40;;;;;;;0.93;0.93;;;10.20;99.90;;;;;;5079709;28;20173;-95
2024/01/30 12:38:46;;;;;;;0.40;0.40;;;10.40;99.90;;;;;;4987729;28;20235;-87
2024/01/30 12:41:12;;;;;;;0.30;0.30;;;10.20;99.90;;;;;;4971383;28;20216;-86
2024/01/30 12:43:38;;;;;;;0.50;0.50;;;10.20;99.90;;;;;;4938993;28;20311;-88
2024/01/30 12:46:04;;;;;;;8.03;0.63;;;10.30;99.90;;;;;;4955995;28;20215;-87
2024/01/30 12:48:29;;;;;;;0.83;0.40;;;10.10;99.90;;;;;;4955959;28;20177;-87
2024/01/30 12:50:56;;;;;;;0.97;0.60;;;10.00;99.90;;;;;;4938480;28;20306;-86
2024/01/30 12:53:22;;;;;;;10.63;0.83;;;10.20;99.90;;;;;;4955290;28;20216;-88
2024/01/30 12:55:49;;;;;;;5.00;0.40;;;10.10;99.90;;;;;;4939515;28;20219;-86
2024/01/30 12:58:16;;;;;;;0.20;0.20;;;10.10;99.90;;;;;;4956622;28;20235;-87
2024/01/30 13:00:45;;;;;;;0.77;0.60;;;10.00;99.90;;;;;;4957328;28;20567;-87
2024/01/30 13:03:11;;;;;;;0.30;0.30;;;10.10;99.90;;;;;;4947943;28;20218;-87
2024/01/30 13:05:37;;;;;;;0.33;0.30;;;10.20;99.90;;;;;;4971549;28;20224;-87
2024/01/30 13:08:03;;;;;;;0.80;0.73;;;10.10;99.90;;;;;;4971570;28;20215;-88
2024/01/30 13:10:29;;;;;;;0.40;0.40;;;10.00;99.90;;;;;;4939530;28;20219;-88
2024/01/30 13:12:54;;;;;;;2.47;1.03;;;10.10;99.90;;;;;;4956272;28;20196;-88
2024/01/30 13:15:22;;;;;;;0.50;0.50;;;10.00;99.90;;;;;;4972129;28;20184;-87
2024/01/30 13:17:49;;;;;;;0.53;0.37;;;10.00;99.90;;;;;;4943533;28;20635;-86
2024/01/30 13:20:19;;;;;;;0.37;0.37;;;9.90;99.90;;;;;;4945594;28;20207;-87
2024/01/30 13:22:45;;;;;;;0.13;0.13;;;10.00;99.90;;;;;;4946150;28;20302;-87
2024/01/30 13:25:11;;;;;;;0.30;0.30;;;10.00;99.90;;;;;;4959687;28;20227;-90
2024/01/30 13:27:37;;;;;;;2.43;0.83;;;10.10;99.90;;;;;;4963816;28;20207;-87
2024/01/30 13:30:04;;;;;;;0.40;0.40;;;10.00;99.90;;;;;;4945848;28;20286;-86
2024/01/30 13:32:33;;;;;;;0.20;0.20;;;10.00;99.90;;;;;;4961125;28;20227;-87
2024/01/30 13:35:01;;;;;;;0.20;0.20;;;10.10;99.90;;;;;;4961935;28;20699;-88
2024/01/30 13:37:30;;;;;;;0.40;0.40;;;10.00;99.90;;;;;;4958339;28;20235;-87
2024/01/30 13:39:56;;;;;;;0.30;0.30;;;10.10;99.90;;;;;;4985728;28;20298;-87
2024/01/30 13:42:23;;;;;;;0.40;0.40;;;10.10;99.90;;;;;;4984927;28;20614;-87